Du har inga inställningar för hoppväder.nu

Hoppväder.nu

Senast uppdaterat 02:01

UTC-tid

2020-06-01 kl. 00:01


Sol och måne

Solen går upp 3:53 och går ner 23:03 (beräknade cirkatider)
Nästa fullmåne blir om 4 dagar (2020-06-05)

METAR

ESOE (Örebro)
(1451 minuter sedan)
ESOE 312350Z AUTO 27003KT 9999 NCD 09/04 Q1029=



ESOK (Karlstad)
(1451 minuter sedan)
ESOK 312350Z AUTO 35003KT 9999 NCD 08/06 Q1030=



ESGR (Skövde)
(1451 minuter sedan)
ESGR 312350Z AUTO 19001KT 9999 NCD 06/05 Q1029=



ESSD (Borlänge)
(1451 minuter sedan)
ESSD 312350Z AUTO 27005KT 9999 NCD 10/03 Q1030=



ESOW (Västerås)
(1451 minuter sedan)
ESOW 312350Z AUTO 01003KT 9999 NCD 08/02 Q1029=



TAF

ESOE (Örebro)
(1471 minuter sedan)
ESOE 312330Z 0100/0108 35004KT CAVOK=



ESOK (Karlstad)
ESOK



ESGR (Skövde)
ESGR



ESSD (Borlänge)
ESSD



ESOW (Västerås)
ESOW





Kodnycklar till TAF och METAR






LHP

(Örebro är område se32g i Delområde 4)

Prognos är inte uppdaterad






Preliminär prognos